Borrego (687) Station Data

Red Flag Warning: No
Fire Weather Zone: 262
SDGE Region: North East
Lat/Lon: 33.263/-116.348

Observations

Time Wind Speed/Gust Temp(F) RH Fuel Moist Fuel Temp(F) Dewpt(F) Tmax(F) Tmin(F) Accum Precip 10-min Precip SL Press(mb)
3/29 8:00am 314 3 G 5 57° 32% - - 27° 67.6° 46.8° 0.0" 0.0" 1019.0
3/29 7:50am 267 1 G 3 55° 34% - - 27° 67.6° 46.8° 0.0" 0.0" 1019.0
3/29 7:40am 262 3 G 4 53° 34% - - 25° 67.6° 46.8° 0.0" 0.0" 1019.0
3/29 7:30am 275 3 G 4 52° 31% - - 22° 67.6° 46.8° 0.0" 0.0" 1018.0
3/29 7:20am 265 1 G 3 50° 33% - - 22° 67.6° 46.8° 0.0" 0.0" 1018.0
3/29 7:10am 277 2 G 3 50° 33% - - 22° 67.6° 46.8° 0.0" 0.0" 1018.0
3/29 7:00am 18 3 G 6 49° 34% - - 22° 67.6° 46.8° 0.0" 0.0" 1018.0
3/29 6:50am 13 2 G 5 54° 28% - - 21° 67.6° 46.8° 0.0" 0.0" 1017.0
3/29 6:40am 337 4 G 10 50° 33% - - 22° 67.6° 46.8° 0.0" 0.0" 1017.0
3/29 6:30am 7 3 G 6 49° 34% - - 22° 67.6° 46.8° 0.0" 0.0" 1017.0
3/29 6:20am 328 4 G 6 49° 34% - - 22° 67.6° 47° 0.0" 0.0" 1017.0
3/29 6:10am 282 4 G 10 51° 34% - - 24° 67.6° 47° 0.0" 0.0" 1017.0
3/29 6:00am 251 3 G 5 53° 30% - - 22° 67.6° 47° 0.0" 0.0" 1017.0
3/29 5:50am 248 4 G 6 54° 29% - - 22° 67.6° 47° 0.0" 0.0" 1017.0
3/29 5:40am 216 4 G 7 50° 34% - - 22° 67.6° 47° 0.0" 0.0" 1017.0
3/29 5:30am 312 3 G 5 49° 36% - - 23° 67.6° 47° 0.0" 0.0" 1017.0
3/29 5:20am 162 1 G 6 50° 32% - - 22° 67.6° 49.2° 0.0" 0.0" 1017.0
3/29 5:10am 314 4 G 8 54° 28% - - 22° 67.6° 52.4° 0.0" 0.0" 1017.0
3/29 5:00am 322 3 G 4 57° 24% - - 21° 67.6° 53° 0.0" 0.0" 1017.0
3/29 4:50am 316 3 G 5 58° 23% - - 21° 67.6° 53° 0.0" 0.0" 1017.0
3/29 4:40am 25 3 G 6 54° 27% - - 21° 67.6° 53° 0.0" 0.0" 1017.0
3/29 4:30am 356 2 G 10 55° 26% - - 20° 67.6° 53° 0.0" 0.0" 1017.0
3/29 4:20am 338 2 G 4 60° 21% - - 20° 67.6° 53.3° 0.0" 0.0" 1017.0
3/29 4:10am 15 2 G 6 59° 22% - - 20° 67.6° 53.3° 0.0" 0.0" 1017.0
3/29 4:00am 5 2 G 6 57° 24% - - 20° 67.6° 53.3° 0.0" 0.0" 1017.0
3/29 3:50am 309 3 G 5 58° 23% - - 20° 67.6° 54.2° 0.0" 0.0" 1017.0
3/29 3:40am 47 4 G 9 58° 23% - - 20° 67.6° 54.2° 0.0" 0.0" 1017.0
3/29 3:30am 301 3 G 8 58° 23% - - 21° 67.6° 54.2° 0.0" 0.0" 1017.0
3/29 3:20am 178 2 G 7 59° 23% - - 21° 67.6° 54.2° 0.0" 0.0" 1017.0
3/29 3:10am 345 3 G 6 57° 24% - - 21° 67.6° 54.2° 0.0" 0.0" 1017.0
3/29 3:00am 326 2 G 5 56° 25% - - 21° 67.6° 54.2° 0.0" 0.0" 1017.0
3/29 2:50am 222 3 G 6 58° 23% - - 20° 67.6° 55° 0.0" 0.0" 1017.0
3/29 2:40am 232 5 G 10 58° 24% - - 21° 67.6° 55° 0.0" 0.0" 1017.0
3/29 2:30am 335 2 G 4 59° 22% - - 20° 67.6° 55.8° 0.0" 0.0" 1017.0
3/29 2:20am 9 1 G 3 58° 23% - - 20° 67.6° 55.8° 0.0" 0.0" 1017.0
3/29 2:10am 146 3 G 6 58° 23% - - 20° 67.6° 55.8° 0.0" 0.0" 1017.0
3/29 2:00am 356 4 G 8 62° 19% - - 19° 67.6° 55.8° 0.0" 0.0" 1017.0
3/29 1:50am 342 5 G 9 60° 22% - - 21° 67.6° 55.8° 0.0" 0.0" 1017.0
3/29 1:40am 317 2 G 10 59° 23% - - 22° 67.6° 55.8° 0.0" 0.0" 1017.0
3/29 1:30am 204 1 G 5 62° 20% - - 21° 67.6° 55.8° 0.0" 0.0" 1017.0
3/29 1:20am 18 4 G 8 64° 19% - - 21° 67.6° 55.8° 0.0" 0.0" 1017.0
3/29 1:10am 63 1 G 4 63° 20% - - 21° 67.6° 55.8° 0.0" 0.0" 1017.0
3/29 1:00am 282 3 G 7 66° 18% - - 21° 67.6° 55.8° 0.0" 0.0" 1017.0
3/29 12:50am 313 3 G 8 65° 19% - - 21° 67.6° 55.8° 0.0" 0.0" 1017.0
3/29 12:40am 347 3 G 9 63° 21% - - 22° 67.5° 55.8° 0.0" 0.0" 1017.0
3/29 12:30am 137 4 G 10 61° 24% - - 25° 67.5° 55.8° 0.0" 0.0" 1017.0
3/29 12:20am 77 5 G 9 57° 26% - - 23° 67.5° 55.8° 0.0" 0.0" 1017.0
3/29 12:10am 226 4 G 7 64° 21% - - 24° 67.5° 58° 0.0" 0.0" 1017.0
3/29 12:00am 280 3 G 4 66° 19% - - 23° 82.2° 50.9° 0.0" 0.0" 1017.0
3/28 11:50pm 333 3 G 5 62° 23% - - 23° 82.2° 50.9° 0.0" 0.0" 1017.0
3/28 11:40pm 335 2 G 5 63° 20% - - 22° 82.2° 50.9° 0.0" 0.0" 1017.0
3/28 11:30pm 30 3 G 4 65° 18% - - 20° 82.2° 50.9° 0.0" 0.0" 1017.0
3/28 11:20pm 15 1 G 2 65° 21% - - 24° 82.2° 50.9° 0.0" 0.0" 1017.0
3/28 11:10pm 24 0 G 4 66° 22% - - 26° 82.2° 50.9° 0.0" 0.0" 1017.0
3/28 11:00pm 63 1 G 3 63° 25% - - 26° 82.2° 50.9° 0.0" 0.0" 1017.0
3/28 10:50pm 206 3 G 7 65° 22% - - 25° 82.2° 50.9° 0.0" 0.0" 1017.0
3/28 10:40pm 272 4 G 7 67° 19% - - 23° 82.2° 50.9° 0.0" 0.0" 1017.0
3/28 10:30pm 245 6 G 8 65° 21% - - 24° 82.2° 50.9° 0.0" 0.0" 1017.0
3/28 10:20pm 237 5 G 8 64° 22% - - 25° 82.2° 50.9° 0.0" 0.0" 1017.0
3/28 10:10pm 225 2 G 3 64° 22% - - 24° 82.2° 50.9° 0.0" 0.0" 1017.0
3/28 10:00pm 295 2 G 4 66° 20% - - 23° 82.2° 50.9° 0.0" 0.0" 1017.0
3/28 9:50pm 12 3 G 6 67° 21% - - 25° 82.2° 50.9° 0.0" 0.0" 1016.0
3/28 9:40pm 61 5 G 7 67° 23% - - 28° 82.2° 50.9° 0.0" 0.0" 1016.0
3/28 9:30pm 20 3 G 6 64° 22% - - 25° 82.2° 50.9° 0.0" 0.0" 1016.0
3/28 9:20pm 325 2 G 4 65° 21% - - 24° 82.2° 50.9° 0.0" 0.0" 1016.0
3/28 9:10pm 330 5 G 8 65° 23% - - 26° 82.2° 50.9° 0.0" 0.0" 1016.0
3/28 9:00pm 347 3 G 4 67° 23% - - 28° 82.2° 50.9° 0.0" 0.0" 1016.0
3/28 8:50pm 307 2 G 3 69° 26% - - 33° 82.2° 50.9° 0.0" 0.0" 1016.0
3/28 8:40pm 263 4 G 6 70° 28% - - 35° 82.2° 50.9° 0.0" 0.0" 1015.0
3/28 8:30pm 272 1 G 4 70° 28% - - 36° 82.2° 50.9° 0.0" 0.0" 1015.0
3/28 8:20pm 300 1 G 3 69° 30% - - 36° 82.2° 50.9° 0.0" 0.0" 1015.0
3/28 8:10pm 233 4 G 7 70° 29% - - 37° 82.2° 50.9° 0.0" 0.0" 1015.0
3/28 8:00pm 211 4 G 6 71° 27% - - 35° 82.2° 50.9° 0.0" 0.0" 1015.0
3/28 7:50pm 225 5 G 7 71° 21% - - 29° 82.2° 50.9° 0.0" 0.0" 1015.0
3/28 7:40pm 228 6 G 7 72° 14% - - 20° 82.2° 50.9° 0.0" 0.0" 1014.0
3/28 7:30pm 232 5 G 6 73° 12% - - 17° 82.2° 50.9° 0.0" 0.0" 1014.0
3/28 7:20pm 225 5 G 7 74° 11% - - 16° 82.2° 50.9° 0.0" 0.0" 1014.0
3/28 7:10pm 190 4 G 5 75° 10% - - 15° 82.2° 50.9° 0.0" 0.0" 1014.0
3/28 7:00pm 172 4 G 6 76° 9% - - 14° 82.2° 50.9° 0.0" 0.0" 1014.0
3/28 6:50pm 167 5 G 8 77° 9% - - 14° 82.2° 50.9° 0.0" 0.0" 1014.0
3/28 6:40pm 161 6 G 10 78° 9% - - 14° 82.2° 50.9° 0.0" 0.0" 1014.0
3/28 6:30pm 162 8 G 11 79° 8% - - 14° 82.2° 50.9° 0.0" 0.0" 1014.0
3/28 6:20pm 155 9 G 13 79° 8% - - 14° 82.2° 50.9° 0.0" 0.0" 1014.0
3/28 6:10pm 163 7 G 11 80° 8% - - 12° 82.2° 50.9° 0.0" 0.0" 1014.0
3/28 6:00pm 160 6 G 12 81° 7% - - 12° 82.2° 50.9° 0.0" 0.0" 1014.0
3/28 5:50pm 170 5 G 10 81° 7% - - 11° 82.2° 50.9° 0.0" 0.0" 1014.0
3/28 5:40pm 158 4 G 8 81° 7% - - 11° 82.2° 50.9° 0.0" 0.0" 1014.0
3/28 5:30pm 167 4 G 10 81° 7% - - 11° 82.2° 50.9° 0.0" 0.0" 1014.0
3/28 5:20pm 94 4 G 11 80° 7% - - 11° 82.2° 50.9° 0.0" 0.0" 1014.0
3/28 5:10pm 142 8 G 14 81° 7% - - 11° 82.2° 50.9° 0.0" 0.0" 1014.0
3/28 5:00pm 139 5 G 9 81° 7% - - 11° 82.2° 50.9° 0.0" 0.0" 1014.0
3/28 4:50pm 172 2 G 8 81° 7% - - 11° 82.2° 50.9° 0.0" 0.0" 1014.0
3/28 4:40pm 95 3 G 7 81° 7% - - 11° 81.8° 50.9° 0.0" 0.0" 1014.0
3/28 4:30pm 134 6 G 9 81° 7% - - 11° 81.8° 50.9° 0.0" 0.0" 1014.0
3/28 4:20pm 140 6 G 9 81° 7% - - 11° 81.8° 50.9° 0.0" 0.0" 1014.0
3/28 4:10pm 264 3 G 9 81° 7% - - 12° 81.8° 50.9° 0.0" 0.0" 1014.0
3/28 4:00pm 206 4 G 7 80° 7% - - 12° 81.3° 50.9° 0.0" 0.0" 1014.0
3/28 3:50pm 221 6 G 9 81° 7% - - 12° 81.3° 50.9° 0.0" 0.0" 1014.0
3/28 3:40pm 220 6 G 9 81° 7% - - 12° 81.3° 50.9° 0.0" 0.0" 1014.0
3/28 3:30pm 231 4 G 7 80° 7% - - 11° 81.2° 50.9° 0.0" 0.0" 1014.0
3/28 3:20pm 208 4 G 8 80° 7% - - 11° 81.2° 50.9° 0.0" 0.0" 1014.0
3/28 3:10pm 145 6 G 13 80° 7% - - 11° 81.2° 50.9° 0.0" 0.0" 1014.0
3/28 3:00pm 202 6 G 13 80° 8% - - 12° 81.2° 50.9° 0.0" 0.0" 1015.0
3/28 2:50pm 203 5 G 11 80° 7% - - 12° 80.7° 50.9° 0.0" 0.0" 1015.0
3/28 2:40pm 217 6 G 11 79° 8% - - 12° 80.7° 50.9° 0.0" 0.0" 1015.0
3/28 2:30pm 162 4 G 9 79° 8% - - 12° 80.7° 50.9° 0.0" 0.0" 1015.0
3/28 2:20pm 100 9 G 16 79° 8% - - 12° 80.7° 50.9° 0.0" 0.0" 1015.0
3/28 2:10pm 166 6 G 12 78° 8% - - 11° 79.9° 50.9° 0.0" 0.0" 1015.0
3/28 2:00pm 144 9 G 15 78° 8% - - 12° 79.9° 50.9° 0.0" 0.0" 1016.0
3/28 1:50pm 129 7 G 14 79° 8% - - 12° 79.9° 50.9° 0.0" 0.0" 1016.0
3/28 1:40pm 184 5 G 14 78° 8% - - 12° 79.7° 50.9° 0.0" 0.0" 1016.0
3/28 1:30pm 147 10 G 19 78° 8% - - 12° 79.7° 50.9° 0.0" 0.0" 1016.0
3/28 1:20pm 134 8 G 16 78° 8% - - 13° 79.7° 50.9° 0.0" 0.0" 1016.0
3/28 1:10pm 129 10 G 17 78° 8% - - 13° 79.7° 50.9° 0.0" 0.0" 1016.0
3/28 1:00pm 123 11 G 19 77° 9% - - 13° 79.7° 50.9° 0.0" 0.0" 1016.0
3/28 12:50pm 116 10 G 18 78° 8% - - 13° 79.7° 50.9° 0.0" 0.0" 1016.0
3/28 12:40pm 107 9 G 15 77° 9% - - 13° 79.7° 50.9° 0.0" 0.0" 1016.0
3/28 12:30pm 112 7 G 17 78° 8% - - 12° 79.7° 50.9° 0.0" 0.0" 1016.0
3/28 12:20pm 104 4 G 10 79° 8% - - 11° 79.7° 50.9° 0.0" 0.0" 1016.0
3/28 12:10pm 199 2 G 7 77° 8% - - 12° 78.7° 50.9° 0.0" 0.0" 1016.0
3/28 12:00pm 317 4 G 8 77° 8% - - 12° 77.8° 50.9° 0.0" 0.0" 1017.0
3/28 11:50am 227 4 G 10 76° 8% - - 12° 76.8° 50.9° 0.0" 0.0" 1017.0
3/28 11:40am 220 5 G 11 76° 9% - - 13° 76.8° 50.9° 0.0" 0.0" 1017.0
3/28 11:30am 213 7 G 14 76° 10% - - 14° 76.7° 50.9° 0.0" 0.0" 1017.0
3/28 11:20am 185 5 G 9 75° 10% - - 15° 76.7° 50.9° 0.0" 0.0" 1017.0
3/28 11:10am 159 6 G 12 74° 10% - - 15° 75.1° 50.9° 0.0" 0.0" 1017.0
3/28 11:00am 252 3 G 7 74° 11% - - 16° 74.5° 50.9° 0.0" 0.0" 1017.0
3/28 10:50am 190 4 G 8 73° 11% - - 17° 74.5° 50.9° 0.0" 0.0" 1017.0
3/28 10:40am 170 5 G 7 74° 11% - - 17° 74.5° 50.9° 0.0" 0.0" 1017.0
3/28 10:30am 159 5 G 13 73° 12% - - 17° 74.2° 50.9° 0.0" 0.0" 1017.0
3/28 10:20am 178 4 G 7 73° 12% - - 18° 73.8° 50.9° 0.0" 0.0" 1017.0
3/28 10:10am 162 3 G 8 72° 13% - - 18° 72.7° 50.9° 0.0" 0.0" 1018.0
3/28 10:00am 160 4 G 12 72° 13% - - 19° 72.7° 50.9° 0.0" 0.0" 1018.0
3/28 9:50am 154 4 G 9 71° 14% - - 19° 72.1° 50.9° 0.0" 0.0" 1017.0
3/28 9:40am 180 4 G 8 70° 15% - - 21° 71.3° 50.9° 0.0" 0.0" 1017.0
3/28 9:30am 186 5 G 8 69° 16% - - 21° 70° 50.9° 0.0" 0.0" 1017.0
3/28 9:20am 181 4 G 7 68° 17% - - 22° 68.9° 50.9° 0.0" 0.0" 1017.0
3/28 9:10am 212 5 G 8 68° 17% - - 21° 68.7° 50.9° 0.0" 0.0" 1017.0
3/28 9:00am 232 4 G 6 68° 17% - - 21° 68.3° 50.9° 0.0" 0.0" 1017.0
3/28 8:50am 283 2 G 5 67° 18% - - 22° 67.5° 50.9° 0.0" 0.0" 1018.0
3/28 8:40am 276 2 G 5 66° 19% - - 23° 66.5° 50.9° 0.0" 0.0" 1018.0
3/28 8:30am 45 2 G 5 65° 21% - - 24° 66.4° 50.9° 0.0" 0.0" 1017.0
3/28 8:20am 330 5 G 7 61° 25% - - 25° 64.1° 50.9° 0.0" 0.0" 1017.0
3/28 8:10am 324 6 G 10 59° 30% - - 28° 64.1° 50.9° 0.0" 0.0" 1017.0
3/28 8:00am 323 1 G 4 60° 29% - - 28° 64.1° 50.9° 0.0" 0.0" 1017.0
3/28 7:50am 255 1 G 5 57° 33% - - 28° 64.1° 50.9° 0.0" 0.0" 1017.0
3/28 7:40am 292 4 G 6 55° 34% - - 27° 64.1° 50.9° 0.0" 0.0" 1017.0
3/28 7:30am 329 4 G 7 56° 32% - - 26° 64.1° 50.9° 0.0" 0.0" 1017.0
3/28 7:20am 271 3 G 4 58° 27% - - 25° 64.1° 50.9° 0.0" 0.0" 1017.0
3/28 7:10am 19 3 G 7 56° 31% - - 25° 64.1° 50.9° 0.0" 0.0" 1017.0
3/28 7:00am 178 3 G 5 55° 32% - - 26° 64.1° 50.9° 0.0" 0.0" 1016.0
3/28 6:50am 179 2 G 4 53° 36% - - 27° 64.1° 50.9° 0.0" 0.0" 1016.0
3/28 6:40am 239 3 G 7 55° 33% - - 27° 64.1° 50.9° 0.0" 0.0" 1016.0
3/28 6:30am 280 5 G 8 55° 34% - - 27° 64.1° 50.9° 0.0" 0.0" 1016.0
3/28 6:20am 26 2 G 6 56° 32% - - 27° 64.1° 50.9° 0.0" 0.0" 1016.0
3/28 6:10am 275 4 G 8 57° 32% - - 27° 64.1° 50.9° 0.0" 0.0" 1016.0
3/28 6:00am 259 6 G 9 55° 36% - - 29° 64.1° 50.9° 0.0" 0.0" 1016.0